createdAt,value
2022-12-05T00:01:18.362Z,30.42
2022-12-05T00:03:46.364Z,29.98
2022-12-05T00:06:13.084Z,33.50
2022-12-05T00:08:39.835Z,28.48
2022-12-05T00:11:12.889Z,29.85
2022-12-05T00:13:40.712Z,24.05
2022-12-05T00:16:09.694Z,30.00
2022-12-05T00:18:36.654Z,32.20
2022-12-05T00:21:04.268Z,30.33
2022-12-05T00:23:31.112Z,32.10
2022-12-05T00:26:01.137Z,35.97
2022-12-05T00:28:27.803Z,34.05
2022-12-05T00:30:54.337Z,33.08
2022-12-05T00:33:20.963Z,33.72
2022-12-05T00:35:47.585Z,35.63
2022-12-05T00:38:14.145Z,31.20
2022-12-05T00:40:40.735Z,29.95
2022-12-05T00:43:07.349Z,33.88
2022-12-05T00:45:34.024Z,31.85
2022-12-05T00:48:00.675Z,32.55
2022-12-05T00:50:27.263Z,34.95
2022-12-05T00:52:53.844Z,31.45
2022-12-05T00:55:20.452Z,36.08
2022-12-05T00:57:47.073Z,34.17
2022-12-05T01:00:14.037Z,33.67
2022-12-05T01:02:40.708Z,32.75
2022-12-05T01:05:07.742Z,35.50
2022-12-05T01:07:34.388Z,32.25
2022-12-05T01:10:01.025Z,35.63
2022-12-05T01:12:28.084Z,34.60
2022-12-05T01:14:55.244Z,36.42
2022-12-05T01:17:21.816Z,34.90
2022-12-05T01:19:48.436Z,34.83
2022-12-05T01:22:15.014Z,35.47
2022-12-05T01:24:41.603Z,33.97
2022-12-05T01:27:08.226Z,36.25
2022-12-05T01:29:34.865Z,35.65
2022-12-05T01:32:01.527Z,34.63
2022-12-05T01:34:28.202Z,31.45
2022-12-05T01:36:54.899Z,34.35
2022-12-05T01:39:21.525Z,35.72
2022-12-05T01:41:50.228Z,30.10
2022-12-05T01:44:16.799Z,33.47
2022-12-05T01:46:48.980Z,32.55
2022-12-05T01:49:19.079Z,31.90
2022-12-05T01:51:48.315Z,31.48
2022-12-05T01:54:17.487Z,36.70
2022-12-05T01:56:48.109Z,34.92
2022-12-05T01:59:15.921Z,34.35
2022-12-05T02:01:42.632Z,33.53
2022-12-05T02:04:10.300Z,34.08
2022-12-05T02:06:36.929Z,33.15
2022-12-05T02:09:03.840Z,35.13
2022-12-05T02:11:32.322Z,38.03
2022-12-05T02:14:24.953Z,34.50
2022-12-05T02:16:51.695Z,33.58
2022-12-05T02:19:40.128Z,31.92
2022-12-05T02:22:35.019Z,33.30
2022-12-05T02:25:18.537Z,33.83
2022-12-05T02:28:15.120Z,35.92
2022-12-05T02:31:06.994Z,36.83
2022-12-05T02:33:47.938Z,37.55
2022-12-05T02:36:29.474Z,35.42
2022-12-05T02:39:10.156Z,37.30
2022-12-05T02:41:46.316Z,36.78
2022-12-05T02:44:38.394Z,36.95
2022-12-05T02:47:08.179Z,36.15
2022-12-05T02:49:37.371Z,36.55
2022-12-05T02:52:09.481Z,34.55
2022-12-05T02:54:40.040Z,35.65
2022-12-05T02:57:08.935Z,41.38
2022-12-05T02:59:36.498Z,35.55
2022-12-05T03:02:04.027Z,41.38
2022-12-05T03:04:31.641Z,41.28
2022-12-05T03:07:03.290Z,39.03
2022-12-05T03:09:51.498Z,48.00
2022-12-05T03:12:30.933Z,43.08
2022-12-05T03:15:00.489Z,42.80
2022-12-05T03:17:35.295Z,44.67
2022-12-05T03:20:34.518Z,48.60
2022-12-05T03:23:09.099Z,45.30
2022-12-05T03:26:00.974Z,45.15
2022-12-05T03:29:09.249Z,42.22
2022-12-05T03:31:58.418Z,39.60
2022-12-05T03:34:48.368Z,40.75
2022-12-05T03:37:30.525Z,36.17
2022-12-05T03:40:15.080Z,34.35
2022-12-05T03:42:52.457Z,36.28
2022-12-05T03:45:27.834Z,39.53
2022-12-05T03:48:05.460Z,35.78
2022-12-05T03:50:34.866Z,37.38
2022-12-05T03:53:21.936Z,38.83
2022-12-05T03:55:58.744Z,36.58
2022-12-05T03:58:47.531Z,33.47
2022-12-05T04:01:18.224Z,37.03
2022-12-05T04:03:52.621Z,38.63
2022-12-05T04:06:32.981Z,36.72
2022-12-05T04:09:04.374Z,37.55
2022-12-05T04:11:34.852Z,33.53
2022-12-05T04:14:09.258Z,35.80
2022-12-05T04:17:02.383Z,34.08
2022-12-05T04:20:06.639Z,37.05
2022-12-05T04:22:34.201Z,33.67
2022-12-05T04:25:22.187Z,35.72
2022-12-05T04:27:59.725Z,33.40
2022-12-05T04:30:35.581Z,33.63
2022-12-05T04:33:10.317Z,31.90
2022-12-05T04:36:04.296Z,32.00
2022-12-05T04:38:41.557Z,36.90
2022-12-05T04:41:14.014Z,34.50
2022-12-05T04:43:44.446Z,34.03
2022-12-05T04:46:14.448Z,35.58
2022-12-05T04:48:44.253Z,36.08
2022-12-05T04:51:20.571Z,36.00
2022-12-05T04:53:51.853Z,38.10
2022-12-05T04:56:20.586Z,32.35
2022-12-05T04:58:47.516Z,35.15
2022-12-05T05:01:24.765Z,34.75
2022-12-05T05:04:14.586Z,33.55
2022-12-05T05:06:41.983Z,36.05
2022-12-05T05:09:10.082Z,35.65
2022-12-05T05:11:37.479Z,36.42
2022-12-05T05:14:04.879Z,33.63
2022-12-05T05:16:35.232Z,32.55
2022-12-05T05:19:02.301Z,37.33
2022-12-05T05:21:40.901Z,31.80
2022-12-05T05:24:09.706Z,35.88
2022-12-05T05:26:40.485Z,34.53
2022-12-05T05:29:07.712Z,34.60
2022-12-05T05:31:34.734Z,34.50
2022-12-05T05:34:08.929Z,36.17
2022-12-05T05:36:36.268Z,33.92
2022-12-05T05:39:03.980Z,34.78
2022-12-05T05:41:35.878Z,35.00
2022-12-05T05:44:04.238Z,38.22
2022-12-05T05:46:33.840Z,34.85
2022-12-05T05:49:00.574Z,37.17
2022-12-05T05:51:29.252Z,36.15
2022-12-05T05:53:57.374Z,36.25
2022-12-05T05:56:24.066Z,33.90
2022-12-05T05:58:56.794Z,34.13
2022-12-05T06:01:23.762Z,35.65
2022-12-05T06:03:50.839Z,33.17
2022-12-05T06:06:18.623Z,31.48
2022-12-05T06:08:45.839Z,33.72
2022-12-05T06:11:24.983Z,34.13
2022-12-05T06:13:56.584Z,34.05
2022-12-05T06:16:23.490Z,33.13
2022-12-05T06:18:51.379Z,32.28
2022-12-05T06:21:18.013Z,33.42
2022-12-05T06:23:45.183Z,34.50
2022-12-05T06:26:14.876Z,32.30
2022-12-05T06:28:42.392Z,34.75
2022-12-05T06:31:10.993Z,34.17
2022-12-05T06:33:38.105Z,35.40
2022-12-05T06:36:10.752Z,36.25
2022-12-05T06:38:42.087Z,37.95
2022-12-05T06:41:14.323Z,34.25
2022-12-05T06:43:41.229Z,39.58
2022-12-05T06:46:09.144Z,36.90
2022-12-05T06:48:35.873Z,36.78
2022-12-05T06:51:02.645Z,34.42
2022-12-05T06:53:29.481Z,33.05
2022-12-05T06:56:01.895Z,29.52
2022-12-05T06:58:29.381Z,31.52
2022-12-05T07:01:15.183Z,28.70
2022-12-05T07:03:43.969Z,30.48
2022-12-05T07:06:11.273Z,29.48
2022-12-05T07:08:37.960Z,30.15
2022-12-05T07:11:04.848Z,30.95
2022-12-05T07:13:31.464Z,29.05
2022-12-05T07:15:59.143Z,31.15
2022-12-05T07:18:26.373Z,28.67
2022-12-05T07:21:11.857Z,29.70
2022-12-05T07:23:39.830Z,32.90
2022-12-05T07:26:07.686Z,28.67
2022-12-05T07:28:34.488Z,28.40
2022-12-05T07:31:02.615Z,30.13
2022-12-05T07:33:29.684Z,29.67
2022-12-05T07:36:04.523Z,28.73
2022-12-05T07:38:31.451Z,30.77
2022-12-05T07:40:58.149Z,32.00
2022-12-05T07:43:24.787Z,29.77
2022-12-05T07:45:51.421Z,29.25
2022-12-05T07:48:18.915Z,32.97
2022-12-05T07:50:45.995Z,29.80
2022-12-05T07:53:12.753Z,26.25
2022-12-05T07:55:39.621Z,32.00
2022-12-05T07:58:06.416Z,34.13
2022-12-05T08:00:33.109Z,32.60
2022-12-05T08:03:02.482Z,30.77
2022-12-05T08:05:29.342Z,29.75
2022-12-05T08:07:55.980Z,29.58
2022-12-05T08:10:22.665Z,27.95
2022-12-05T08:12:49.244Z,30.48
2022-12-05T08:15:15.934Z,28.05
2022-12-05T08:17:42.565Z,28.60
2022-12-05T08:20:09.688Z,29.10
2022-12-05T08:22:36.413Z,29.27
2022-12-05T08:25:03.206Z,32.40
2022-12-05T08:27:29.790Z,31.58
2022-12-05T08:29:56.729Z,28.80
2022-12-05T08:32:23.543Z,28.08
2022-12-05T08:34:50.235Z,26.80
2022-12-05T08:37:16.841Z,24.95
2022-12-05T08:39:43.410Z,25.02
2022-12-05T08:42:10.097Z,27.73
2022-12-05T08:44:36.684Z,28.20
2022-12-05T08:47:03.310Z,23.80
2022-12-05T08:49:29.936Z,24.42
2022-12-05T08:51:56.634Z,23.25
2022-12-05T08:54:23.290Z,24.85
2022-12-05T08:56:52.873Z,24.98
2022-12-05T08:59:19.910Z,24.70
2022-12-05T09:01:46.583Z,26.33
2022-12-05T09:04:13.319Z,27.33
2022-12-05T09:06:40.188Z,23.50
2022-12-05T09:09:08.740Z,24.88
2022-12-05T09:11:40.741Z,26.20
2022-12-05T09:14:07.533Z,25.85
2022-12-05T09:16:38.447Z,24.67
2022-12-05T09:19:10.582Z,22.88
2022-12-05T09:21:37.191Z,25.55
2022-12-05T09:24:03.865Z,23.00
2022-12-05T09:26:30.762Z,25.92
2022-12-05T09:28:58.142Z,25.98
2022-12-05T09:31:27.324Z,26.25
2022-12-05T09:33:54.515Z,29.05
2022-12-05T09:36:23.805Z,28.10
2022-12-05T09:38:52.163Z,26.00
2022-12-05T09:42:05.829Z,26.95
2022-12-05T09:44:49.300Z,23.30
2022-12-05T09:47:30.849Z,25.40
2022-12-05T09:50:11.994Z,26.23
2022-12-05T09:53:04.158Z,26.05
2022-12-05T09:55:41.977Z,25.05
2022-12-05T09:58:48.036Z,26.45
2022-12-05T10:01:50.490Z,26.25
2022-12-05T10:04:32.070Z,23.48
2022-12-05T10:07:40.380Z,25.10
2022-12-05T10:10:28.931Z,25.20
2022-12-05T10:13:23.261Z,25.38
2022-12-05T10:15:57.244Z,26.15
2022-12-05T10:18:54.523Z,25.23
2022-12-05T10:21:32.659Z,25.70
2022-12-05T10:24:03.526Z,26.15
2022-12-05T10:26:45.643Z,28.02
2022-12-05T10:29:28.615Z,24.10
2022-12-05T10:32:06.646Z,23.70
2022-12-05T10:34:42.035Z,23.38
2022-12-05T10:37:15.829Z,23.75
2022-12-05T10:39:42.706Z,24.02
2022-12-05T10:42:28.910Z,23.05
2022-12-05T10:45:02.858Z,24.60
2022-12-05T10:50:01.920Z,21.52
2022-12-05T10:52:30.982Z,22.83
2022-12-05T10:55:02.893Z,23.60
2022-12-05T10:57:30.489Z,24.70
2022-12-05T10:59:58.535Z,22.92
2022-12-05T11:02:25.450Z,23.98
2022-12-05T11:04:53.016Z,25.15
2022-12-05T11:07:36.088Z,22.65
2022-12-05T11:10:26.700Z,21.50
2022-12-05T11:13:02.101Z,23.20
2022-12-05T11:15:30.850Z,22.65
2022-12-05T11:18:17.443Z,20.00
2022-12-05T11:20:44.032Z,22.38
2022-12-05T11:23:36.989Z,24.10
2022-12-05T11:26:03.999Z,22.10
2022-12-05T11:28:34.734Z,22.55
2022-12-05T11:31:08.552Z,22.08
2022-12-05T11:36:23.950Z,22.45
2022-12-05T11:38:51.496Z,21.58
2022-12-05T11:41:27.556Z,24.17
2022-12-05T11:44:13.564Z,23.30
2022-12-05T11:46:55.509Z,20.10
2022-12-05T11:49:27.773Z,22.35
2022-12-05T11:52:13.297Z,22.73
2022-12-05T11:55:17.035Z,25.30
2022-12-05T11:57:55.069Z,21.25
2022-12-05T12:00:45.115Z,21.90
2022-12-05T12:03:33.439Z,22.77
2022-12-05T12:06:24.844Z,21.08
2022-12-05T12:09:14.360Z,21.45
2022-12-05T12:12:07.250Z,18.90
2022-12-05T12:14:55.080Z,21.05
2022-12-05T12:17:24.860Z,21.98
2022-12-05T12:19:57.444Z,21.65
2022-12-05T12:22:48.116Z,21.90
2022-12-05T12:25:25.999Z,20.45
2022-12-05T12:28:02.950Z,20.05
2022-12-05T12:30:44.379Z,20.08
2022-12-05T12:33:27.139Z,20.50
2022-12-05T12:36:10.100Z,20.83
2022-12-05T12:39:19.705Z,18.88
2022-12-05T12:41:54.991Z,20.45
2022-12-05T12:44:57.608Z,21.33
2022-12-05T12:47:41.273Z,19.13
2022-12-05T12:50:19.817Z,18.63
2022-12-05T12:53:07.972Z,18.90
2022-12-05T12:56:06.486Z,16.95
2022-12-05T12:59:15.186Z,18.33
2022-12-05T13:01:54.896Z,16.15
2022-12-05T13:04:30.300Z,16.77
2022-12-05T13:07:14.352Z,16.30
2022-12-05T13:10:00.155Z,16.08
2022-12-05T13:12:35.191Z,16.20
2022-12-05T13:15:07.481Z,16.75
2022-12-05T13:17:34.300Z,16.05
2022-12-05T13:20:01.181Z,12.77
2022-12-05T13:22:29.074Z,14.57
2022-12-05T13:24:56.828Z,12.32
2022-12-05T13:27:27.519Z,13.00
2022-12-05T13:29:58.539Z,12.70
2022-12-05T13:32:35.514Z,11.35
2022-12-05T13:35:12.204Z,12.10
2022-12-05T13:38:05.713Z,12.40
2022-12-05T13:40:52.143Z,10.35
2022-12-05T13:43:22.220Z,9.40
2022-12-05T13:46:11.026Z,10.00
2022-12-05T13:48:42.195Z,12.52
2022-12-05T13:51:13.394Z,11.07
2022-12-05T13:53:44.591Z,12.60
2022-12-05T13:56:14.209Z,13.63
2022-12-05T13:58:57.226Z,12.73
2022-12-05T14:01:27.030Z,12.68
2022-12-05T14:03:58.961Z,10.43
2022-12-05T14:06:40.217Z,12.25
2022-12-05T14:09:19.120Z,10.32
2022-12-05T14:12:10.619Z,15.55
2022-12-05T14:14:55.532Z,13.13
2022-12-05T14:17:28.633Z,10.90
2022-12-05T14:20:15.293Z,13.48
2022-12-05T14:22:58.548Z,11.80
2022-12-05T14:25:58.237Z,12.00
2022-12-05T14:28:50.854Z,12.13
2022-12-05T14:31:44.790Z,12.57
2022-12-05T14:34:27.397Z,17.75
2022-12-05T14:37:12.723Z,16.38
2022-12-05T14:39:45.746Z,12.93
2022-12-05T14:42:36.804Z,13.73
2022-12-05T14:45:22.843Z,14.30
2022-12-05T14:48:05.393Z,12.43
2022-12-05T14:50:37.096Z,11.48
2022-12-05T14:53:15.326Z,11.68
2022-12-05T14:55:55.270Z,16.23
2022-12-05T14:58:44.047Z,13.68
2022-12-05T15:01:10.644Z,12.23
2022-12-05T15:03:42.317Z,11.15
2022-12-05T15:06:15.556Z,13.45
2022-12-05T15:08:49.593Z,15.10
2022-12-05T15:11:29.103Z,13.55
2022-12-05T15:14:19.461Z,12.55
2022-12-05T15:16:50.077Z,14.25
2022-12-05T15:19:39.927Z,14.45
2022-12-05T15:22:07.695Z,13.32
2022-12-05T15:24:39.318Z,12.70
2022-12-05T15:27:11.562Z,13.88
2022-12-05T15:29:41.088Z,13.75
2022-12-05T15:32:10.768Z,17.80
2022-12-05T15:34:50.750Z,17.42
2022-12-05T15:37:22.012Z,15.73
2022-12-05T15:40:00.693Z,17.98
2022-12-05T15:42:52.266Z,16.02
2022-12-05T15:45:27.578Z,16.10
2022-12-05T15:47:59.770Z,17.10
2022-12-05T15:50:29.075Z,16.35
2022-12-05T15:53:13.968Z,15.88
2022-12-05T15:55:55.468Z,16.35
2022-12-05T15:58:29.207Z,16.35
2022-12-05T16:01:09.722Z,12.63
2022-12-05T16:03:56.073Z,16.00
2022-12-05T16:06:38.192Z,14.40
2022-12-05T16:09:26.234Z,15.18
2022-12-05T16:12:00.104Z,13.18
2022-12-05T16:17:17.688Z,15.45
2022-12-05T16:19:44.757Z,16.58
2022-12-05T16:22:17.069Z,19.67
2022-12-05T16:24:53.627Z,17.33
2022-12-05T16:27:27.503Z,14.00
2022-12-05T16:32:41.068Z,12.55
2022-12-05T16:35:28.270Z,14.35
2022-12-05T16:38:16.907Z,13.43
2022-12-05T16:40:46.217Z,14.40
2022-12-05T16:43:33.199Z,13.35
2022-12-05T16:46:12.991Z,16.05
2022-12-05T16:48:41.726Z,14.82
2022-12-05T16:51:14.431Z,16.17
2022-12-05T16:53:46.189Z,14.45
2022-12-05T16:56:20.312Z,15.60
2022-12-05T16:58:47.286Z,11.70
2022-12-05T17:01:37.185Z,15.57
2022-12-05T17:04:05.679Z,13.40
2022-12-05T17:06:32.325Z,13.60
2022-12-05T17:08:59.210Z,11.02
2022-12-05T17:11:29.565Z,11.13
2022-12-05T17:13:57.989Z,9.48
2022-12-05T17:16:26.551Z,10.98
2022-12-05T17:18:53.626Z,13.60
2022-12-05T17:21:23.701Z,10.52
2022-12-05T17:23:50.666Z,10.98
2022-12-05T17:26:19.696Z,8.88
2022-12-05T17:28:47.105Z,10.60
2022-12-05T17:31:17.081Z,8.98
2022-12-05T17:33:44.899Z,11.00
2022-12-05T17:36:12.406Z,9.27
2022-12-05T17:38:39.202Z,8.13
2022-12-05T17:41:07.348Z,8.23
2022-12-05T17:43:34.482Z,8.43
2022-12-05T17:46:01.958Z,6.50
2022-12-05T17:48:29.237Z,8.57
2022-12-05T17:50:58.608Z,8.88
2022-12-05T17:53:25.297Z,6.80
2022-12-05T17:55:52.209Z,9.35
2022-12-05T17:58:18.911Z,10.68
2022-12-05T18:00:46.629Z,10.88
2022-12-05T18:03:16.071Z,7.78
2022-12-05T18:05:43.636Z,10.27
2022-12-05T18:08:10.637Z,9.82
2022-12-05T18:10:40.472Z,13.95
2022-12-05T18:13:07.078Z,10.05
2022-12-05T18:15:36.713Z,12.90
2022-12-05T18:20:35.414Z,12.35
2022-12-05T18:23:02.993Z,13.00
2022-12-05T18:25:31.904Z,13.27
2022-12-05T18:27:59.063Z,11.65
2022-12-05T18:30:25.670Z,11.25
2022-12-05T18:32:52.469Z,24.80
2022-12-05T18:35:19.059Z,14.35
2022-12-05T18:37:45.628Z,10.77
2022-12-05T18:40:13.217Z,13.40
2022-12-05T18:42:39.839Z,15.20
2022-12-05T18:45:07.172Z,13.35
2022-12-05T18:47:33.811Z,15.15
2022-12-05T18:50:01.704Z,14.00
2022-12-05T18:52:28.407Z,12.05
2022-12-05T18:55:15.722Z,14.88
2022-12-05T18:57:43.034Z,10.98
2022-12-05T19:00:10.397Z,12.07
2022-12-05T19:02:37.218Z,16.80
2022-12-05T19:05:04.101Z,10.23
2022-12-05T19:07:30.757Z,16.27
2022-12-05T19:09:58.402Z,13.30
2022-12-05T19:12:25.007Z,10.38
2022-12-05T19:14:51.627Z,11.02
2022-12-05T19:17:18.195Z,8.60
2022-12-05T19:19:44.831Z,12.90
2022-12-05T19:22:11.447Z,12.65
2022-12-05T19:24:38.072Z,11.32
2022-12-05T19:27:04.724Z,11.43
2022-12-05T19:29:31.313Z,11.77
2022-12-05T19:31:57.938Z,11.07
2022-12-05T19:34:24.650Z,11.02
2022-12-05T19:36:51.284Z,10.80
2022-12-05T19:39:20.365Z,13.73
2022-12-05T19:41:47.831Z,10.90
2022-12-05T19:44:14.804Z,11.27
2022-12-05T19:46:41.575Z,10.23
2022-12-05T19:49:11.160Z,7.43
2022-12-05T19:51:38.343Z,9.68
2022-12-05T19:54:06.595Z,10.55
2022-12-05T19:56:34.671Z,11.02
2022-12-05T19:59:01.594Z,9.45
2022-12-05T20:01:29.579Z,9.88
2022-12-05T20:03:58.960Z,9.88
2022-12-05T20:06:26.463Z,8.75
2022-12-05T20:08:53.542Z,11.27
2022-12-05T20:11:24.853Z,9.65
2022-12-05T20:13:54.204Z,11.85
2022-12-05T20:16:22.698Z,12.88
2022-12-05T20:18:49.796Z,12.05
2022-12-05T20:21:19.545Z,8.52
2022-12-05T20:23:46.509Z,11.73
2022-12-05T20:26:16.849Z,10.40
2022-12-05T20:28:44.153Z,13.15
2022-12-05T20:31:13.659Z,14.10
2022-12-05T20:33:41.226Z,10.18
2022-12-05T20:36:13.609Z,11.05
2022-12-05T20:38:40.905Z,11.82
2022-12-05T20:41:11.282Z,11.90
2022-12-05T20:43:38.370Z,15.32
2022-12-05T20:46:11.373Z,12.75
2022-12-05T20:48:38.091Z,13.82
2022-12-05T20:51:12.583Z,15.07
2022-12-05T20:53:41.057Z,13.23
2022-12-05T20:56:10.777Z,15.48
2022-12-05T20:58:38.110Z,13.55
2022-12-05T21:01:10.364Z,12.90
2022-12-05T21:03:41.679Z,15.30
2022-12-05T21:06:26.574Z,15.93
2022-12-05T21:08:54.418Z,13.45
2022-12-05T21:11:22.393Z,14.43
2022-12-05T21:13:49.158Z,14.10
2022-12-05T21:16:20.528Z,14.18
2022-12-05T21:18:47.508Z,19.27
2022-12-05T21:21:22.644Z,15.07
2022-12-05T21:23:54.805Z,14.68
2022-12-05T21:26:24.274Z,13.63
2022-12-05T21:28:50.977Z,13.68
2022-12-05T21:31:29.911Z,13.63
2022-12-05T21:33:59.134Z,11.32
2022-12-05T21:36:27.385Z,12.90
2022-12-05T21:38:56.222Z,12.77
2022-12-05T21:41:24.936Z,11.90
2022-12-05T21:43:55.016Z,12.02
2022-12-05T21:46:25.944Z,13.95
2022-12-05T21:48:53.068Z,10.57
2022-12-05T21:51:20.128Z,11.35
2022-12-05T21:53:46.713Z,11.68
2022-12-05T21:56:16.118Z,12.60
2022-12-05T21:58:44.073Z,12.57
2022-12-05T22:01:12.220Z,12.15
2022-12-05T22:03:38.848Z,12.30
2022-12-05T22:06:08.082Z,12.43
2022-12-05T22:08:35.374Z,11.75
2022-12-05T22:11:13.235Z,13.43
2022-12-05T22:13:40.671Z,12.13
2022-12-05T22:16:08.150Z,14.32
2022-12-05T22:18:35.348Z,12.35
2022-12-05T22:21:10.083Z,12.88
2022-12-05T22:23:36.687Z,14.30
2022-12-05T22:26:09.115Z,14.18
2022-12-05T22:28:36.784Z,12.88
2022-12-05T22:31:07.159Z,14.38
2022-12-05T22:33:36.512Z,12.85
2022-12-05T22:36:05.788Z,14.90
2022-12-05T22:38:36.236Z,15.10
2022-12-05T22:41:06.194Z,13.45
2022-12-05T22:43:34.880Z,15.63
2022-12-05T22:46:10.090Z,14.30
2022-12-05T22:48:36.983Z,14.40
2022-12-05T22:51:05.307Z,15.50
2022-12-05T22:53:32.465Z,14.32
2022-12-05T22:56:07.206Z,14.88
2022-12-05T22:58:34.215Z,14.30
2022-12-05T23:01:11.141Z,13.50
2022-12-05T23:03:38.161Z,13.85
2022-12-05T23:06:11.429Z,14.88
2022-12-05T23:08:39.696Z,12.68
2022-12-05T23:11:07.488Z,13.75
2022-12-05T23:13:35.228Z,13.02
2022-12-05T23:16:29.308Z,15.27
2022-12-05T23:18:58.146Z,14.35
2022-12-05T23:21:39.370Z,12.27
2022-12-05T23:24:08.996Z,14.43
2022-12-05T23:26:38.971Z,12.88
2022-12-05T23:29:06.434Z,15.00
2022-12-05T23:31:33.717Z,12.52
2022-12-05T23:34:03.625Z,14.40
2022-12-05T23:36:31.198Z,14.65
2022-12-05T23:38:57.795Z,13.05
2022-12-05T23:41:25.921Z,13.40
2022-12-05T23:43:53.195Z,14.20
2022-12-05T23:46:22.333Z,13.13
2022-12-05T23:48:49.445Z,14.05
2022-12-05T23:51:22.383Z,13.45
2022-12-05T23:53:53.344Z,10.67
2022-12-05T23:56:23.465Z,14.80
2022-12-05T23:58:50.300Z,15.00
